sensor_id;sensor_type;location;lat;lon;timestamp;P1;durP1;ratioP1;P2;durP2;ratioP2
36351;SDS011;22382;44.768;17.206;2023-04-29T00:02:24;15.20;;;9.73;;
36351;SDS011;22382;44.768;17.206;2023-04-29T00:04:54;18.27;;;10.35;;
36351;SDS011;22382;44.768;17.206;2023-04-29T00:07:22;15.02;;;9.95;;
36351;SDS011;22382;44.768;17.206;2023-04-29T00:09:49;16.35;;;10.45;;
36351;SDS011;22382;44.768;17.206;2023-04-29T00:12:16;16.55;;;10.52;;
36351;SDS011;22382;44.768;17.206;2023-04-29T00:14:44;17.42;;;10.50;;
36351;SDS011;22382;44.768;17.206;2023-04-29T00:17:11;16.27;;;11.13;;
36351;SDS011;22382;44.768;17.206;2023-04-29T00:19:38;15.88;;;10.30;;
36351;SDS011;22382;44.768;17.206;2023-04-29T00:22:05;16.35;;;10.27;;
36351;SDS011;22382;44.768;17.206;2023-04-29T00:24:32;16.27;;;9.82;;
36351;SDS011;22382;44.768;17.206;2023-04-29T00:27:00;13.85;;;9.48;;
36351;SDS011;22382;44.768;17.206;2023-04-29T00:29:28;14.68;;;9.18;;
36351;SDS011;22382;44.768;17.206;2023-04-29T00:31:55;14.88;;;9.43;;
36351;SDS011;22382;44.768;17.206;2023-04-29T00:34:22;12.38;;;8.45;;
36351;SDS011;22382;44.768;17.206;2023-04-29T00:36:49;15.70;;;8.98;;
36351;SDS011;22382;44.768;17.206;2023-04-29T00:39:16;12.23;;;8.43;;
36351;SDS011;22382;44.768;17.206;2023-04-29T00:41:44;14.73;;;8.88;;
36351;SDS011;22382;44.768;17.206;2023-04-29T00:44:11;13.15;;;8.57;;
36351;SDS011;22382;44.768;17.206;2023-04-29T00:46:38;13.15;;;7.63;;
36351;SDS011;22382;44.768;17.206;2023-04-29T00:49:06;13.05;;;7.70;;
36351;SDS011;22382;44.768;17.206;2023-04-29T00:51:35;11.07;;;7.40;;
36351;SDS011;22382;44.768;17.206;2023-04-29T00:54:06;11.63;;;7.80;;
36351;SDS011;22382;44.768;17.206;2023-04-29T00:56:34;12.57;;;8.00;;
36351;SDS011;22382;44.768;17.206;2023-04-29T00:59:03;13.40;;;8.02;;
36351;SDS011;22382;44.768;17.206;2023-04-29T01:01:31;10.57;;;7.88;;
36351;SDS011;22382;44.768;17.206;2023-04-29T01:03:58;13.88;;;8.93;;
36351;SDS011;22382;44.768;17.206;2023-04-29T01:09:28;14.23;;;8.73;;
36351;SDS011;22382;44.768;17.206;2023-04-29T01:17:30;17.52;;;10.52;;
36351;SDS011;22382;44.768;17.206;2023-04-29T01:20:05;15.18;;;9.15;;
36351;SDS011;22382;44.768;17.206;2023-04-29T01:22:34;14.70;;;7.88;;
36351;SDS011;22382;44.768;17.206;2023-04-29T01:25:02;10.98;;;7.47;;
36351;SDS011;22382;44.768;17.206;2023-04-29T01:30:44;10.32;;;7.20;;
36351;SDS011;22382;44.768;17.206;2023-04-29T01:39:36;11.38;;;7.10;;
36351;SDS011;22382;44.768;17.206;2023-04-29T01:42:33;10.52;;;7.35;;
36351;SDS011;22382;44.768;17.206;2023-04-29T01:45:06;9.32;;;6.75;;
36351;SDS011;22382;44.768;17.206;2023-04-29T01:47:36;10.45;;;6.95;;
36351;SDS011;22382;44.768;17.206;2023-04-29T01:50:04;13.82;;;7.35;;
36351;SDS011;22382;44.768;17.206;2023-04-29T01:52:32;10.73;;;6.80;;
36351;SDS011;22382;44.768;17.206;2023-04-29T01:54:59;10.75;;;7.15;;
36351;SDS011;22382;44.768;17.206;2023-04-29T01:57:26;13.23;;;7.05;;
36351;SDS011;22382;44.768;17.206;2023-04-29T01:59:54;14.35;;;7.25;;
36351;SDS011;22382;44.768;17.206;2023-04-29T02:02:22;10.23;;;6.97;;
36351;SDS011;22382;44.768;17.206;2023-04-29T02:04:50;13.13;;;7.38;;
36351;SDS011;22382;44.768;17.206;2023-04-29T02:07:18;12.30;;;8.05;;
36351;SDS011;22382;44.768;17.206;2023-04-29T02:09:45;10.73;;;7.22;;
36351;SDS011;22382;44.768;17.206;2023-04-29T02:12:12;12.85;;;7.03;;
36351;SDS011;22382;44.768;17.206;2023-04-29T02:14:40;11.38;;;6.75;;
36351;SDS011;22382;44.768;17.206;2023-04-29T02:17:07;12.73;;;7.13;;
36351;SDS011;22382;44.768;17.206;2023-04-29T02:19:34;10.20;;;6.93;;
36351;SDS011;22382;44.768;17.206;2023-04-29T02:22:01;11.18;;;7.32;;
36351;SDS011;22382;44.768;17.206;2023-04-29T02:24:29;11.65;;;6.93;;
36351;SDS011;22382;44.768;17.206;2023-04-29T02:26:56;11.77;;;7.10;;
36351;SDS011;22382;44.768;17.206;2023-04-29T02:29:24;9.95;;;7.47;;
36351;SDS011;22382;44.768;17.206;2023-04-29T02:31:52;11.75;;;7.15;;
36351;SDS011;22382;44.768;17.206;2023-04-29T02:34:19;11.25;;;7.90;;
36351;SDS011;22382;44.768;17.206;2023-04-29T02:36:47;11.60;;;7.18;;
36351;SDS011;22382;44.768;17.206;2023-04-29T02:39:14;13.52;;;7.10;;
36351;SDS011;22382;44.768;17.206;2023-04-29T02:41:42;11.32;;;7.07;;
36351;SDS011;22382;44.768;17.206;2023-04-29T02:44:09;13.30;;;7.63;;
36351;SDS011;22382;44.768;17.206;2023-04-29T02:46:36;9.32;;;6.82;;
36351;SDS011;22382;44.768;17.206;2023-04-29T02:49:06;11.52;;;7.50;;
36351;SDS011;22382;44.768;17.206;2023-04-29T02:51:33;10.75;;;6.47;;
36351;SDS011;22382;44.768;17.206;2023-04-29T02:54:00;11.02;;;7.03;;
36351;SDS011;22382;44.768;17.206;2023-04-29T02:56:27;10.85;;;8.10;;
36351;SDS011;22382;44.768;17.206;2023-04-29T02:58:55;13.65;;;8.80;;
36351;SDS011;22382;44.768;17.206;2023-04-29T03:01:22;11.50;;;8.63;;
36351;SDS011;22382;44.768;17.206;2023-04-29T03:03:49;14.00;;;8.88;;
36351;SDS011;22382;44.768;17.206;2023-04-29T03:06:17;15.32;;;9.73;;
36351;SDS011;22382;44.768;17.206;2023-04-29T03:08:44;14.40;;;9.10;;
36351;SDS011;22382;44.768;17.206;2023-04-29T03:11:11;15.73;;;9.30;;
36351;SDS011;22382;44.768;17.206;2023-04-29T03:13:38;12.90;;;9.35;;
36351;SDS011;22382;44.768;17.206;2023-04-29T03:16:06;13.55;;;9.23;;
36351;SDS011;22382;44.768;17.206;2023-04-29T03:18:33;15.93;;;9.57;;
36351;SDS011;22382;44.768;17.206;2023-04-29T03:21:01;13.38;;;9.15;;
36351;SDS011;22382;44.768;17.206;2023-04-29T03:23:30;15.82;;;9.18;;
36351;SDS011;22382;44.768;17.206;2023-04-29T03:25:57;14.50;;;9.55;;
36351;SDS011;22382;44.768;17.206;2023-04-29T03:28:24;15.10;;;8.68;;
36351;SDS011;22382;44.768;17.206;2023-04-29T03:30:51;15.15;;;9.05;;
36351;SDS011;22382;44.768;17.206;2023-04-29T03:33:19;15.90;;;10.38;;
36351;SDS011;22382;44.768;17.206;2023-04-29T03:35:46;15.45;;;10.00;;
36351;SDS011;22382;44.768;17.206;2023-04-29T03:38:13;15.82;;;10.15;;
36351;SDS011;22382;44.768;17.206;2023-04-29T03:40:40;15.60;;;10.70;;
36351;SDS011;22382;44.768;17.206;2023-04-29T03:43:07;15.57;;;10.30;;
36351;SDS011;22382;44.768;17.206;2023-04-29T03:45:34;19.17;;;11.48;;
36351;SDS011;22382;44.768;17.206;2023-04-29T03:48:02;14.25;;;10.30;;
36351;SDS011;22382;44.768;17.206;2023-04-29T03:50:30;16.70;;;11.38;;
36351;SDS011;22382;44.768;17.206;2023-04-29T03:52:57;16.20;;;11.43;;
36351;SDS011;22382;44.768;17.206;2023-04-29T03:55:24;17.45;;;12.07;;
36351;SDS011;22382;44.768;17.206;2023-04-29T03:57:52;22.08;;;11.55;;
36351;SDS011;22382;44.768;17.206;2023-04-29T04:00:19;17.42;;;10.82;;
36351;SDS011;22382;44.768;17.206;2023-04-29T04:02:46;17.95;;;11.23;;
36351;SDS011;22382;44.768;17.206;2023-04-29T04:05:14;19.55;;;11.45;;
36351;SDS011;22382;44.768;17.206;2023-04-29T04:07:41;16.73;;;11.35;;
36351;SDS011;22382;44.768;17.206;2023-04-29T04:10:09;17.88;;;11.00;;
36351;SDS011;22382;44.768;17.206;2023-04-29T04:12:36;15.02;;;11.00;;
36351;SDS011;22382;44.768;17.206;2023-04-29T04:15:03;17.20;;;10.95;;
36351;SDS011;22382;44.768;17.206;2023-04-29T04:17:31;15.55;;;10.20;;
36351;SDS011;22382;44.768;17.206;2023-04-29T04:19:58;16.33;;;10.73;;
36351;SDS011;22382;44.768;17.206;2023-04-29T04:22:25;14.73;;;10.48;;
36351;SDS011;22382;44.768;17.206;2023-04-29T04:24:56;20.10;;;11.50;;
36351;SDS011;22382;44.768;17.206;2023-04-29T04:27:23;15.70;;;11.05;;
36351;SDS011;22382;44.768;17.206;2023-04-29T04:29:53;20.30;;;11.70;;
36351;SDS011;22382;44.768;17.206;2023-04-29T04:32:21;19.38;;;10.90;;
36351;SDS011;22382;44.768;17.206;2023-04-29T04:34:49;18.73;;;11.32;;
36351;SDS011;22382;44.768;17.206;2023-04-29T04:37:16;18.10;;;11.07;;
36351;SDS011;22382;44.768;17.206;2023-04-29T04:39:43;16.15;;;10.70;;
36351;SDS011;22382;44.768;17.206;2023-04-29T04:42:10;17.23;;;11.00;;
36351;SDS011;22382;44.768;17.206;2023-04-29T04:44:37;15.43;;;10.90;;
36351;SDS011;22382;44.768;17.206;2023-04-29T04:47:05;16.65;;;10.88;;
36351;SDS011;22382;44.768;17.206;2023-04-29T04:49:32;20.55;;;11.55;;
36351;SDS011;22382;44.768;17.206;2023-04-29T04:51:59;16.02;;;10.68;;
36351;SDS011;22382;44.768;17.206;2023-04-29T04:54:26;18.90;;;11.68;;
36351;SDS011;22382;44.768;17.206;2023-04-29T04:56:53;16.42;;;10.93;;
36351;SDS011;22382;44.768;17.206;2023-04-29T04:59:20;15.32;;;10.70;;
36351;SDS011;22382;44.768;17.206;2023-04-29T05:01:47;19.50;;;12.85;;
36351;SDS011;22382;44.768;17.206;2023-04-29T05:04:15;17.95;;;11.65;;
36351;SDS011;22382;44.768;17.206;2023-04-29T05:06:42;17.77;;;11.25;;
36351;SDS011;22382;44.768;17.206;2023-04-29T05:09:09;16.60;;;11.35;;
36351;SDS011;22382;44.768;17.206;2023-04-29T05:11:37;16.13;;;11.10;;
36351;SDS011;22382;44.768;17.206;2023-04-29T05:14:04;13.75;;;10.50;;
36351;SDS011;22382;44.768;17.206;2023-04-29T05:16:32;17.80;;;10.88;;
36351;SDS011;22382;44.768;17.206;2023-04-29T05:18:59;15.82;;;10.73;;
36351;SDS011;22382;44.768;17.206;2023-04-29T05:21:26;18.42;;;10.05;;
36351;SDS011;22382;44.768;17.206;2023-04-29T05:23:53;15.05;;;10.80;;
36351;SDS011;22382;44.768;17.206;2023-04-29T05:26:21;16.30;;;10.45;;
36351;SDS011;22382;44.768;17.206;2023-04-29T05:28:48;17.35;;;10.40;;
36351;SDS011;22382;44.768;17.206;2023-04-29T05:31:15;22.73;;;12.10;;
36351;SDS011;22382;44.768;17.206;2023-04-29T05:33:42;20.48;;;11.45;;
36351;SDS011;22382;44.768;17.206;2023-04-29T05:36:09;15.43;;;10.25;;
36351;SDS011;22382;44.768;17.206;2023-04-29T05:38:37;15.85;;;10.10;;
36351;SDS011;22382;44.768;17.206;2023-04-29T05:41:04;15.80;;;10.95;;
36351;SDS011;22382;44.768;17.206;2023-04-29T05:43:31;17.25;;;11.15;;
36351;SDS011;22382;44.768;17.206;2023-04-29T05:45:58;17.42;;;11.30;;
36351;SDS011;22382;44.768;17.206;2023-04-29T05:48:25;21.48;;;11.90;;
36351;SDS011;22382;44.768;17.206;2023-04-29T05:50:54;19.67;;;10.25;;
36351;SDS011;22382;44.768;17.206;2023-04-29T05:53:23;21.55;;;11.32;;
36351;SDS011;22382;44.768;17.206;2023-04-29T05:55:50;16.45;;;10.25;;
36351;SDS011;22382;44.768;17.206;2023-04-29T05:58:17;19.35;;;11.63;;
36351;SDS011;22382;44.768;17.206;2023-04-29T06:00:45;17.65;;;11.95;;
36351;SDS011;22382;44.768;17.206;2023-04-29T06:03:14;18.52;;;12.38;;
36351;SDS011;22382;44.768;17.206;2023-04-29T06:05:42;15.13;;;10.57;;
36351;SDS011;22382;44.768;17.206;2023-04-29T06:08:10;20.08;;;10.57;;
36351;SDS011;22382;44.768;17.206;2023-04-29T06:10:38;16.88;;;11.18;;
36351;SDS011;22382;44.768;17.206;2023-04-29T06:13:05;20.45;;;11.07;;
36351;SDS011;22382;44.768;17.206;2023-04-29T06:15:33;21.58;;;11.88;;
36351;SDS011;22382;44.768;17.206;2023-04-29T06:18:00;23.05;;;13.18;;
36351;SDS011;22382;44.768;17.206;2023-04-29T06:20:28;21.88;;;13.25;;
36351;SDS011;22382;44.768;17.206;2023-04-29T06:22:55;22.38;;;14.30;;
36351;SDS011;22382;44.768;17.206;2023-04-29T06:25:22;23.75;;;13.57;;
36351;SDS011;22382;44.768;17.206;2023-04-29T06:27:50;20.00;;;11.68;;
36351;SDS011;22382;44.768;17.206;2023-04-29T06:30:17;18.02;;;10.90;;
36351;SDS011;22382;44.768;17.206;2023-04-29T06:32:44;16.42;;;10.02;;
36351;SDS011;22382;44.768;17.206;2023-04-29T06:35:11;19.55;;;10.45;;
36351;SDS011;22382;44.768;17.206;2023-04-29T06:37:38;17.98;;;10.82;;
36351;SDS011;22382;44.768;17.206;2023-04-29T06:40:06;17.25;;;9.77;;
36351;SDS011;22382;44.768;17.206;2023-04-29T06:42:33;17.73;;;9.98;;
36351;SDS011;22382;44.768;17.206;2023-04-29T06:45:02;15.07;;;9.60;;
36351;SDS011;22382;44.768;17.206;2023-04-29T06:47:30;14.70;;;8.93;;
36351;SDS011;22382;44.768;17.206;2023-04-29T06:49:58;16.83;;;10.18;;
36351;SDS011;22382;44.768;17.206;2023-04-29T06:52:26;12.35;;;8.18;;
36351;SDS011;22382;44.768;17.206;2023-04-29T06:54:53;14.73;;;9.57;;
36351;SDS011;22382;44.768;17.206;2023-04-29T06:57:20;12.20;;;7.82;;
36351;SDS011;22382;44.768;17.206;2023-04-29T06:59:47;12.40;;;7.55;;
36351;SDS011;22382;44.768;17.206;2023-04-29T07:02:15;12.32;;;7.70;;
36351;SDS011;22382;44.768;17.206;2023-04-29T07:04:42;12.95;;;8.25;;
36351;SDS011;22382;44.768;17.206;2023-04-29T07:07:10;16.80;;;8.48;;
36351;SDS011;22382;44.768;17.206;2023-04-29T07:09:37;26.25;;;9.20;;
36351;SDS011;22382;44.768;17.206;2023-04-29T07:12:04;21.30;;;8.98;;
36351;SDS011;22382;44.768;17.206;2023-04-29T07:14:32;12.15;;;7.70;;
36351;SDS011;22382;44.768;17.206;2023-04-29T07:16:59;14.38;;;8.68;;
36351;SDS011;22382;44.768;17.206;2023-04-29T07:19:26;12.52;;;8.13;;
36351;SDS011;22382;44.768;17.206;2023-04-29T07:21:53;15.38;;;9.30;;
36351;SDS011;22382;44.768;17.206;2023-04-29T07:24:20;18.10;;;8.80;;
36351;SDS011;22382;44.768;17.206;2023-04-29T07:26:49;13.52;;;8.07;;
36351;SDS011;22382;44.768;17.206;2023-04-29T07:29:17;16.98;;;9.65;;
36351;SDS011;22382;44.768;17.206;2023-04-29T07:31:44;15.55;;;8.68;;
36351;SDS011;22382;44.768;17.206;2023-04-29T07:34:11;12.40;;;6.88;;
36351;SDS011;22382;44.768;17.206;2023-04-29T07:36:39;17.20;;;7.90;;
36351;SDS011;22382;44.768;17.206;2023-04-29T07:39:06;15.10;;;7.88;;
36351;SDS011;22382;44.768;17.206;2023-04-29T07:41:33;13.55;;;6.97;;
36351;SDS011;22382;44.768;17.206;2023-04-29T07:44:01;10.82;;;6.53;;
36351;SDS011;22382;44.768;17.206;2023-04-29T07:46:28;11.68;;;7.47;;
36351;SDS011;22382;44.768;17.206;2023-04-29T07:48:55;15.52;;;7.80;;
36351;SDS011;22382;44.768;17.206;2023-04-29T07:51:23;14.07;;;7.65;;
36351;SDS011;22382;44.768;17.206;2023-04-29T07:53:51;10.27;;;7.20;;
36351;SDS011;22382;44.768;17.206;2023-04-29T07:56:18;8.23;;;5.57;;
36351;SDS011;22382;44.768;17.206;2023-04-29T07:58:45;13.75;;;6.68;;
36351;SDS011;22382;44.768;17.206;2023-04-29T08:01:12;12.98;;;6.15;;
36351;SDS011;22382;44.768;17.206;2023-04-29T08:03:41;9.27;;;5.70;;
36351;SDS011;22382;44.768;17.206;2023-04-29T08:06:08;9.20;;;6.07;;
36351;SDS011;22382;44.768;17.206;2023-04-29T08:08:35;10.00;;;5.60;;
36351;SDS011;22382;44.768;17.206;2023-04-29T08:11:02;8.07;;;5.47;;
36351;SDS011;22382;44.768;17.206;2023-04-29T08:13:30;8.30;;;4.45;;
36351;SDS011;22382;44.768;17.206;2023-04-29T08:15:57;6.80;;;3.35;;
36351;SDS011;22382;44.768;17.206;2023-04-29T08:18:24;6.90;;;3.85;;
36351;SDS011;22382;44.768;17.206;2023-04-29T08:20:52;7.30;;;3.40;;
36351;SDS011;22382;44.768;17.206;2023-04-29T08:23:19;5.28;;;3.50;;
36351;SDS011;22382;44.768;17.206;2023-04-29T08:25:46;6.55;;;3.95;;
36351;SDS011;22382;44.768;17.206;2023-04-29T08:28:17;4.32;;;3.13;;
36351;SDS011;22382;44.768;17.206;2023-04-29T08:30:44;6.55;;;3.15;;
36351;SDS011;22382;44.768;17.206;2023-04-29T08:33:12;6.78;;;3.35;;
36351;SDS011;22382;44.768;17.206;2023-04-29T08:35:40;6.00;;;3.20;;
36351;SDS011;22382;44.768;17.206;2023-04-29T08:38:08;5.68;;;2.90;;
36351;SDS011;22382;44.768;17.206;2023-04-29T08:40:36;3.38;;;2.38;;
36351;SDS011;22382;44.768;17.206;2023-04-29T08:43:09;5.55;;;2.33;;
36351;SDS011;22382;44.768;17.206;2023-04-29T08:45:36;6.15;;;2.90;;
36351;SDS011;22382;44.768;17.206;2023-04-29T08:48:08;3.60;;;2.15;;
36351;SDS011;22382;44.768;17.206;2023-04-29T08:50:39;6.35;;;2.30;;
36351;SDS011;22382;44.768;17.206;2023-04-29T08:53:08;3.47;;;2.28;;
36351;SDS011;22382;44.768;17.206;2023-04-29T08:55:42;6.15;;;3.15;;
36351;SDS011;22382;44.768;17.206;2023-04-29T08:58:11;6.95;;;3.42;;
36351;SDS011;22382;44.768;17.206;2023-04-29T09:00:39;6.57;;;2.78;;
36351;SDS011;22382;44.768;17.206;2023-04-29T09:06:01;3.40;;;2.47;;
36351;SDS011;22382;44.768;17.206;2023-04-29T09:08:31;6.15;;;2.95;;
36351;SDS011;22382;44.768;17.206;2023-04-29T09:11:00;5.68;;;3.17;;
36351;SDS011;22382;44.768;17.206;2023-04-29T09:13:29;10.02;;;2.88;;
36351;SDS011;22382;44.768;17.206;2023-04-29T09:15:57;5.75;;;3.13;;
36351;SDS011;22382;44.768;17.206;2023-04-29T09:23:57;7.15;;;3.15;;
36351;SDS011;22382;44.768;17.206;2023-04-29T09:26:26;5.68;;;3.13;;
36351;SDS011;22382;44.768;17.206;2023-04-29T09:29:10;6.10;;;3.00;;
36351;SDS011;22382;44.768;17.206;2023-04-29T09:31:44;4.10;;;2.80;;
36351;SDS011;22382;44.768;17.206;2023-04-29T09:34:12;5.28;;;2.60;;
36351;SDS011;22382;44.768;17.206;2023-04-29T09:36:44;6.43;;;2.33;;
36351;SDS011;22382;44.768;17.206;2023-04-29T09:39:20;4.63;;;2.42;;
36351;SDS011;22382;44.768;17.206;2023-04-29T09:44:25;5.43;;;2.58;;
36351;SDS011;22382;44.768;17.206;2023-04-29T09:46:57;6.60;;;3.00;;
36351;SDS011;22382;44.768;17.206;2023-04-29T09:49:32;5.63;;;3.50;;
36351;SDS011;22382;44.768;17.206;2023-04-29T09:52:04;7.25;;;2.63;;
36351;SDS011;22382;44.768;17.206;2023-04-29T09:54:36;7.78;;;3.03;;
36351;SDS011;22382;44.768;17.206;2023-04-29T09:57:05;8.00;;;3.10;;
36351;SDS011;22382;44.768;17.206;2023-04-29T09:59:35;6.00;;;2.97;;
36351;SDS011;22382;44.768;17.206;2023-04-29T10:02:09;4.22;;;2.03;;
36351;SDS011;22382;44.768;17.206;2023-04-29T10:04:47;6.90;;;2.80;;
36351;SDS011;22382;44.768;17.206;2023-04-29T10:07:19;7.05;;;2.65;;
36351;SDS011;22382;44.768;17.206;2023-04-29T10:09:47;4.20;;;2.60;;
36351;SDS011;22382;44.768;17.206;2023-04-29T10:12:15;4.80;;;2.50;;
36351;SDS011;22382;44.768;17.206;2023-04-29T10:15:02;6.03;;;2.58;;
36351;SDS011;22382;44.768;17.206;2023-04-29T10:17:51;5.38;;;2.30;;
36351;SDS011;22382;44.768;17.206;2023-04-29T10:20:24;4.65;;;1.80;;
36351;SDS011;22382;44.768;17.206;2023-04-29T10:22:52;6.70;;;2.70;;
36351;SDS011;22382;44.768;17.206;2023-04-29T10:25:21;4.60;;;2.55;;
36351;SDS011;22382;44.768;17.206;2023-04-29T10:27:50;4.28;;;2.10;;
36351;SDS011;22382;44.768;17.206;2023-04-29T10:30:19;4.75;;;2.15;;
36351;SDS011;22382;44.768;17.206;2023-04-29T10:32:47;4.72;;;2.10;;
36351;SDS011;22382;44.768;17.206;2023-04-29T10:35:20;4.38;;;2.30;;
36351;SDS011;22382;44.768;17.206;2023-04-29T10:37:52;3.42;;;1.80;;
36351;SDS011;22382;44.768;17.206;2023-04-29T10:40:34;3.63;;;1.88;;
36351;SDS011;22382;44.768;17.206;2023-04-29T10:43:13;6.47;;;2.53;;
36351;SDS011;22382;44.768;17.206;2023-04-29T10:45:44;2.92;;;2.00;;
36351;SDS011;22382;44.768;17.206;2023-04-29T10:48:12;6.50;;;2.33;;
36351;SDS011;22382;44.768;17.206;2023-04-29T10:53:18;4.40;;;1.83;;
36351;SDS011;22382;44.768;17.206;2023-04-29T10:55:56;3.17;;;1.92;;
36351;SDS011;22382;44.768;17.206;2023-04-29T10:58:38;5.82;;;1.90;;
36351;SDS011;22382;44.768;17.206;2023-04-29T11:01:14;3.60;;;2.00;;
36351;SDS011;22382;44.768;17.206;2023-04-29T11:06:15;4.90;;;1.90;;
36351;SDS011;22382;44.768;17.206;2023-04-29T11:08:42;7.43;;;2.03;;
36351;SDS011;22382;44.768;17.206;2023-04-29T11:11:12;3.13;;;2.15;;
36351;SDS011;22382;44.768;17.206;2023-04-29T11:13:41;4.32;;;2.00;;
36351;SDS011;22382;44.768;17.206;2023-04-29T11:16:12;5.25;;;2.20;;
36351;SDS011;22382;44.768;17.206;2023-04-29T11:21:33;3.80;;;1.92;;
36351;SDS011;22382;44.768;17.206;2023-04-29T11:24:05;4.80;;;2.05;;
36351;SDS011;22382;44.768;17.206;2023-04-29T11:26:35;6.30;;;2.25;;
36351;SDS011;22382;44.768;17.206;2023-04-29T11:29:06;5.90;;;2.92;;
36351;SDS011;22382;44.768;17.206;2023-04-29T11:31:37;4.00;;;2.20;;
36351;SDS011;22382;44.768;17.206;2023-04-29T11:34:05;5.38;;;2.10;;
36351;SDS011;22382;44.768;17.206;2023-04-29T11:36:33;6.78;;;2.40;;
36351;SDS011;22382;44.768;17.206;2023-04-29T11:39:02;4.20;;;2.22;;
36351;SDS011;22382;44.768;17.206;2023-04-29T11:41:30;4.43;;;2.10;;
36351;SDS011;22382;44.768;17.206;2023-04-29T11:43:58;6.43;;;2.20;;
36351;SDS011;22382;44.768;17.206;2023-04-29T11:46:29;2.95;;;1.77;;
36351;SDS011;22382;44.768;17.206;2023-04-29T11:48:57;6.15;;;2.10;;
36351;SDS011;22382;44.768;17.206;2023-04-29T11:51:27;6.05;;;2.20;;
36351;SDS011;22382;44.768;17.206;2023-04-29T11:53:55;3.72;;;2.05;;
36351;SDS011;22382;44.768;17.206;2023-04-29T11:56:25;9.02;;;2.40;;
36351;SDS011;22382;44.768;17.206;2023-04-29T11:58:53;5.60;;;2.00;;
36351;SDS011;22382;44.768;17.206;2023-04-29T12:01:26;5.75;;;1.95;;
36351;SDS011;22382;44.768;17.206;2023-04-29T12:03:57;9.00;;;2.20;;
36351;SDS011;22382;44.768;17.206;2023-04-29T12:06:26;6.10;;;2.13;;
36351;SDS011;22382;44.768;17.206;2023-04-29T12:08:57;33.55;;;3.30;;
36351;SDS011;22382;44.768;17.206;2023-04-29T12:11:26;5.80;;;1.98;;
36351;SDS011;22382;44.768;17.206;2023-04-29T12:13:54;5.57;;;2.10;;
36351;SDS011;22382;44.768;17.206;2023-04-29T12:16:23;5.78;;;2.30;;
36351;SDS011;22382;44.768;17.206;2023-04-29T12:18:52;4.53;;;1.90;;
36351;SDS011;22382;44.768;17.206;2023-04-29T12:21:23;3.88;;;1.70;;
36351;SDS011;22382;44.768;17.206;2023-04-29T12:23:50;4.00;;;1.55;;
36351;SDS011;22382;44.768;17.206;2023-04-29T12:26:18;5.28;;;1.30;;
36351;SDS011;22382;44.768;17.206;2023-04-29T12:28:47;3.88;;;1.50;;
36351;SDS011;22382;44.768;17.206;2023-04-29T12:31:19;5.05;;;1.60;;
36351;SDS011;22382;44.768;17.206;2023-04-29T12:33:46;8.48;;;2.08;;
36351;SDS011;22382;44.768;17.206;2023-04-29T12:36:17;5.90;;;2.15;;
36351;SDS011;22382;44.768;17.206;2023-04-29T12:38:46;3.40;;;1.73;;
36351;SDS011;22382;44.768;17.206;2023-04-29T12:41:14;3.97;;;1.90;;
36351;SDS011;22382;44.768;17.206;2023-04-29T12:43:42;4.60;;;1.67;;
36351;SDS011;22382;44.768;17.206;2023-04-29T12:46:10;5.75;;;2.60;;
36351;SDS011;22382;44.768;17.206;2023-04-29T12:48:40;6.47;;;2.10;;
36351;SDS011;22382;44.768;17.206;2023-04-29T12:51:09;2.50;;;1.40;;
36351;SDS011;22382;44.768;17.206;2023-04-29T12:53:37;5.15;;;1.88;;
36351;SDS011;22382;44.768;17.206;2023-04-29T12:56:04;3.05;;;2.10;;
36351;SDS011;22382;44.768;17.206;2023-04-29T12:58:32;4.70;;;1.73;;
36351;SDS011;22382;44.768;17.206;2023-04-29T13:01:00;5.55;;;1.73;;
36351;SDS011;22382;44.768;17.206;2023-04-29T13:03:27;2.63;;;1.70;;
36351;SDS011;22382;44.768;17.206;2023-04-29T13:05:56;5.57;;;1.60;;
36351;SDS011;22382;44.768;17.206;2023-04-29T13:08:24;4.05;;;1.52;;
36351;SDS011;22382;44.768;17.206;2023-04-29T13:10:52;5.50;;;1.92;;
36351;SDS011;22382;44.768;17.206;2023-04-29T13:13:19;4.25;;;1.58;;
36351;SDS011;22382;44.768;17.206;2023-04-29T13:15:48;4.43;;;2.00;;
36351;SDS011;22382;44.768;17.206;2023-04-29T13:18:15;5.63;;;1.90;;
36351;SDS011;22382;44.768;17.206;2023-04-29T13:20:43;3.75;;;1.50;;
36351;SDS011;22382;44.768;17.206;2023-04-29T13:23:10;7.15;;;1.52;;
36351;SDS011;22382;44.768;17.206;2023-04-29T13:25:40;3.65;;;2.10;;
36351;SDS011;22382;44.768;17.206;2023-04-29T13:28:07;4.30;;;1.83;;
36351;SDS011;22382;44.768;17.206;2023-04-29T13:30:34;5.18;;;1.83;;
36351;SDS011;22382;44.768;17.206;2023-04-29T13:33:01;6.63;;;2.10;;
36351;SDS011;22382;44.768;17.206;2023-04-29T13:35:37;3.47;;;1.25;;
36351;SDS011;22382;44.768;17.206;2023-04-29T13:38:07;3.40;;;1.42;;
36351;SDS011;22382;44.768;17.206;2023-04-29T13:40:34;4.72;;;1.85;;
36351;SDS011;22382;44.768;17.206;2023-04-29T13:43:09;2.38;;;1.33;;
36351;SDS011;22382;44.768;17.206;2023-04-29T13:45:41;3.45;;;1.48;;
36351;SDS011;22382;44.768;17.206;2023-04-29T13:48:13;3.33;;;1.40;;
36351;SDS011;22382;44.768;17.206;2023-04-29T13:51:00;3.85;;;1.63;;
36351;SDS011;22382;44.768;17.206;2023-04-29T13:53:30;7.80;;;4.13;;
36351;SDS011;22382;44.768;17.206;2023-04-29T13:56:17;3.42;;;1.42;;
36351;SDS011;22382;44.768;17.206;2023-04-29T13:58:47;3.30;;;1.85;;
36351;SDS011;22382;44.768;17.206;2023-04-29T14:01:18;5.43;;;1.67;;
36351;SDS011;22382;44.768;17.206;2023-04-29T14:03:48;3.58;;;1.50;;
36351;SDS011;22382;44.768;17.206;2023-04-29T14:06:15;2.67;;;1.20;;
36351;SDS011;22382;44.768;17.206;2023-04-29T14:08:42;3.65;;;2.05;;
36351;SDS011;22382;44.768;17.206;2023-04-29T14:11:10;2.65;;;1.35;;
36351;SDS011;22382;44.768;17.206;2023-04-29T14:13:37;3.47;;;1.27;;
36351;SDS011;22382;44.768;17.206;2023-04-29T14:16:04;3.72;;;1.60;;
36351;SDS011;22382;44.768;17.206;2023-04-29T14:18:32;2.78;;;1.25;;
36351;SDS011;22382;44.768;17.206;2023-04-29T14:20:59;7.32;;;1.58;;
36351;SDS011;22382;44.768;17.206;2023-04-29T14:23:26;4.47;;;1.70;;
36351;SDS011;22382;44.768;17.206;2023-04-29T14:25:54;4.45;;;2.20;;
36351;SDS011;22382;44.768;17.206;2023-04-29T14:28:41;7.75;;;1.98;;
36351;SDS011;22382;44.768;17.206;2023-04-29T14:31:08;6.35;;;1.88;;
36351;SDS011;22382;44.768;17.206;2023-04-29T14:33:39;4.68;;;1.70;;
36351;SDS011;22382;44.768;17.206;2023-04-29T14:36:06;8.00;;;2.00;;
36351;SDS011;22382;44.768;17.206;2023-04-29T14:38:34;4.93;;;2.05;;
36351;SDS011;22382;44.768;17.206;2023-04-29T14:41:01;3.00;;;1.77;;
36351;SDS011;22382;44.768;17.206;2023-04-29T14:43:28;6.72;;;1.70;;
36351;SDS011;22382;44.768;17.206;2023-04-29T14:45:56;3.80;;;1.90;;
36351;SDS011;22382;44.768;17.206;2023-04-29T14:48:24;5.50;;;1.70;;
36351;SDS011;22382;44.768;17.206;2023-04-29T14:50:51;3.60;;;1.88;;
36351;SDS011;22382;44.768;17.206;2023-04-29T14:53:18;4.82;;;2.30;;
36351;SDS011;22382;44.768;17.206;2023-04-29T14:55:49;8.43;;;2.20;;
36351;SDS011;22382;44.768;17.206;2023-04-29T14:58:16;5.70;;;1.88;;
36351;SDS011;22382;44.768;17.206;2023-04-29T15:00:44;4.93;;;2.25;;
36351;SDS011;22382;44.768;17.206;2023-04-29T15:03:11;8.55;;;1.95;;
36351;SDS011;22382;44.768;17.206;2023-04-29T15:05:48;3.30;;;2.20;;
36351;SDS011;22382;44.768;17.206;2023-04-29T15:08:16;3.38;;;1.67;;
36351;SDS011;22382;44.768;17.206;2023-04-29T15:10:45;3.83;;;1.70;;